SHO weather

King Mswati III International Airport
Manzini, Lubombo, Swaziland

Public forecast

Using degrees Celsius for public forecast. Weather courtesy of forecast.io.

METAR (pilot weather report)

Retrieved 2019/07/24 08:00 UTC (53 minutes ago):

FDSK 240800Z 18005KT CAVOK 24/M02 Q1014 NOSIG

TAF (pilot weather forecast)

Forecast is more than 12 hours old.

Closest forecast is Matsapha Airport, 24.3 nm (45.0 km) WSW. Retrieved 2019/06/03 12:35 UTC (2 months ago):

TAF FDMS 031000Z 0312/0418 12006KT CAVOK